createdAt,value
2022-09-28T00:00:13.037Z,97071.66
2022-09-28T00:02:40.868Z,97068.53
2022-09-28T00:05:12.612Z,97062.22
2022-09-28T00:07:41.982Z,97062.94
2022-09-28T00:10:10.565Z,97054.72
2022-09-28T00:12:38.199Z,97047.34
2022-09-28T00:15:06.325Z,97044.97
2022-09-28T00:17:35.058Z,97041.38
2022-09-28T00:20:05.617Z,97040.19
2022-09-28T00:22:33.448Z,97037.81
2022-09-28T00:25:02.444Z,97027.66
2022-09-28T00:27:30.103Z,97033.16
2022-09-28T00:29:58.000Z,97022.13
2022-09-28T00:32:26.618Z,97019.31
2022-09-28T00:34:55.004Z,97018.63
2022-09-28T00:37:22.813Z,97011.91
2022-09-28T00:39:50.548Z,97014.97
2022-09-28T00:42:22.024Z,97016.59
2022-09-28T00:44:51.039Z,97022.00
2022-09-28T00:47:25.825Z,97015.88
2022-09-28T00:49:58.323Z,97004.19
2022-09-28T00:52:30.483Z,97000.66
2022-09-28T00:55:02.160Z,97000.63
2022-09-28T00:57:32.112Z,96988.84
2022-09-28T01:00:01.803Z,96988.47
2022-09-28T01:02:29.690Z,96984.59
2022-09-28T01:04:59.274Z,96971.69
2022-09-28T01:07:27.402Z,96971.28
2022-09-28T01:09:56.277Z,96959.47
2022-09-28T01:12:23.998Z,96971.63
2022-09-28T01:14:53.730Z,96967.31
2022-09-28T01:17:28.293Z,96963.41
2022-09-28T01:20:37.457Z,96957.91
2022-09-28T01:23:38.618Z,96939.16
2022-09-28T01:26:35.944Z,96922.69
2022-09-28T01:29:12.260Z,96924.66
2022-09-28T01:31:46.797Z,96904.66
2022-09-28T01:34:19.696Z,96909.38
2022-09-28T01:36:50.593Z,96903.13
2022-09-28T01:39:24.258Z,96897.63
2022-09-28T01:41:56.860Z,96893.69
2022-09-28T01:44:28.947Z,96885.84
2022-09-28T01:47:04.126Z,96885.06
2022-09-28T01:49:36.760Z,96868.22
2022-09-28T01:52:12.248Z,96874.06
2022-09-28T01:54:46.482Z,96863.88
2022-09-28T01:57:21.060Z,96860.72
2022-09-28T01:59:59.735Z,96859.13
2022-09-28T02:02:33.064Z,96848.97
2022-09-28T02:05:06.139Z,96833.31
2022-09-28T02:07:39.300Z,96843.91
2022-09-28T02:10:12.018Z,96849.41
2022-09-28T02:12:47.473Z,96839.19
2022-09-28T02:15:20.367Z,96834.91
2022-09-28T02:17:48.932Z,96829.81
2022-09-28T02:20:17.525Z,96824.69
2022-09-28T02:22:49.607Z,96816.00
2022-09-28T02:25:24.975Z,96825.47
2022-09-28T02:28:00.833Z,96828.22
2022-09-28T02:30:31.554Z,96814.84
2022-09-28T02:33:04.690Z,96803.91
2022-09-28T02:35:34.833Z,96814.13
2022-09-28T02:38:03.825Z,96817.66
2022-09-28T02:40:34.701Z,96806.66
2022-09-28T02:43:12.678Z,96812.53
2022-09-28T02:45:54.867Z,96813.31
2022-09-28T02:48:44.048Z,96812.13
2022-09-28T02:51:25.528Z,96806.69
2022-09-28T02:54:18.681Z,96805.03
2022-09-28T02:57:10.858Z,96793.66
2022-09-28T02:59:50.629Z,96797.22
2022-09-28T03:02:26.428Z,96801.94
2022-09-28T03:05:07.384Z,96792.91
2022-09-28T03:07:37.959Z,96799.97
2022-09-28T03:10:12.932Z,96818.34
2022-09-28T03:12:40.743Z,96829.31
2022-09-28T03:15:15.371Z,96854.44
2022-09-28T03:17:43.573Z,96841.94
2022-09-28T03:20:12.482Z,96841.16
2022-09-28T03:22:40.445Z,96844.72
2022-09-28T03:25:09.755Z,96855.28
2022-09-28T03:27:39.886Z,96849.78
2022-09-28T03:30:09.693Z,96851.75
2022-09-28T03:32:40.210Z,96852.16
2022-09-28T03:35:10.240Z,96853.31
2022-09-28T03:37:38.656Z,96845.06
2022-09-28T03:40:07.799Z,96836.81
2022-09-28T03:42:37.654Z,96857.59
2022-09-28T03:45:06.576Z,96846.22
2022-09-28T03:47:34.360Z,96847.00
2022-09-28T03:50:03.526Z,96848.56
2022-09-28T03:52:31.132Z,96843.47
2022-09-28T03:54:58.811Z,96844.25
2022-09-28T03:57:27.852Z,96855.59
2022-09-28T03:59:55.557Z,96842.31
2022-09-28T04:02:23.276Z,96843.50
2022-09-28T04:04:51.063Z,96851.31
2022-09-28T04:07:20.252Z,96846.63
2022-09-28T04:09:47.936Z,96844.63
2022-09-28T04:12:15.657Z,96845.84
2022-09-28T04:14:43.669Z,96843.47
2022-09-28T04:17:13.730Z,96848.97
2022-09-28T04:19:41.828Z,96850.53
2022-09-28T04:22:42.145Z,96841.53
2022-09-28T04:25:10.381Z,96837.22
2022-09-28T04:27:55.770Z,96846.25
2022-09-28T04:30:24.640Z,96847.81
2022-09-28T04:32:53.449Z,96838.81
2022-09-28T04:35:21.284Z,96834.09
2022-09-28T04:37:50.570Z,96847.38
2022-09-28T04:40:18.288Z,96850.13
2022-09-28T04:42:53.739Z,96853.28
2022-09-28T04:45:22.661Z,96853.31
2022-09-28T04:47:51.146Z,96857.19
2022-09-28T04:50:28.582Z,96852.09
2022-09-28T04:53:17.873Z,96853.28
2022-09-28T04:55:45.551Z,96846.25
2022-09-28T04:58:13.291Z,96849.00
2022-09-28T05:00:41.002Z,96854.44
2022-09-28T05:03:22.399Z,96851.31
2022-09-28T05:06:17.165Z,96846.25
2022-09-28T05:08:47.810Z,96859.09
2022-09-28T05:11:16.633Z,96865.41
2022-09-28T05:13:46.099Z,96868.53
2022-09-28T05:16:17.109Z,96863.03
2022-09-28T05:19:06.166Z,96867.72
2022-09-28T05:21:34.003Z,96872.06
2022-09-28T05:24:07.305Z,96860.69
2022-09-28T05:26:36.738Z,96867.31
2022-09-28T05:29:05.316Z,96858.72
2022-09-28T05:31:51.472Z,96864.94
2022-09-28T05:34:36.114Z,96864.56
2022-09-28T05:37:03.930Z,96856.78
2022-09-28T05:39:33.298Z,96852.09
2022-09-28T05:42:04.186Z,96853.25
2022-09-28T05:44:31.962Z,96856.75
2022-09-28T05:46:59.761Z,96867.00
2022-09-28T05:49:29.093Z,96877.94
2022-09-28T05:52:00.836Z,96879.47
2022-09-28T05:54:28.673Z,96877.63
2022-09-28T05:56:58.307Z,96875.59
2022-09-28T05:59:27.492Z,96882.25
2022-09-28T06:01:55.650Z,96890.06
2022-09-28T06:04:23.414Z,96890.44
2022-09-28T06:06:51.931Z,96894.41
2022-09-28T06:09:23.831Z,96900.69
2022-09-28T06:12:17.972Z,96902.25
2022-09-28T06:14:49.427Z,96899.94
2022-09-28T06:17:17.171Z,96895.19
2022-09-28T06:19:52.284Z,96898.38
2022-09-28T06:22:55.865Z,96894.88
2022-09-28T06:25:27.603Z,96888.22
2022-09-28T06:27:58.329Z,96903.09
2022-09-28T06:30:27.868Z,96901.91
2022-09-28T06:32:56.372Z,96912.13
2022-09-28T06:35:26.031Z,96920.34
2022-09-28T06:37:54.630Z,96922.72
2022-09-28T06:40:23.478Z,96919.19
2022-09-28T06:42:58.158Z,96922.25
2022-09-28T06:45:44.590Z,96924.28
2022-09-28T06:48:35.544Z,96925.81
2022-09-28T06:51:03.409Z,96925.78
2022-09-28T06:53:49.627Z,96940.63
2022-09-28T06:56:37.033Z,96934.03
2022-09-28T06:59:06.219Z,96933.66
2022-09-28T07:01:38.284Z,96934.41
2022-09-28T07:04:09.977Z,96939.94
2022-09-28T07:06:56.138Z,96949.78
2022-09-28T07:09:59.323Z,96954.44
2022-09-28T07:12:51.060Z,96954.03
2022-09-28T07:15:33.299Z,96956.75
2022-09-28T07:18:04.166Z,96965.75
2022-09-28T07:20:38.568Z,96966.53
2022-09-28T07:23:19.007Z,96974.44
2022-09-28T07:26:08.927Z,96975.19
2022-09-28T07:29:03.394Z,96989.75
2022-09-28T07:31:37.376Z,96987.03
2022-09-28T07:34:24.582Z,96984.66
2022-09-28T07:37:14.365Z,96989.75
2022-09-28T07:40:00.103Z,96992.47
2022-09-28T07:42:30.315Z,96995.66
2022-09-28T07:44:58.634Z,96998.75
2022-09-28T07:47:33.859Z,96998.78
2022-09-28T07:50:34.592Z,97003.88
2022-09-28T07:53:26.906Z,97010.13
2022-09-28T07:56:09.920Z,97009.75
2022-09-28T07:58:48.617Z,97014.81
2022-09-28T08:01:34.909Z,97016.44
2022-09-28T08:04:04.658Z,97032.50
2022-09-28T08:06:32.429Z,97027.81
2022-09-28T08:09:01.740Z,97021.91
2022-09-28T08:11:50.874Z,97023.06
2022-09-28T08:14:52.252Z,97021.13
2022-09-28T08:17:48.119Z,97023.09
2022-09-28T08:20:35.331Z,97032.50
2022-09-28T08:23:07.095Z,97022.72
2022-09-28T08:25:36.682Z,97031.31
2022-09-28T08:28:07.133Z,97033.69
2022-09-28T08:30:38.749Z,97041.53
2022-09-28T08:33:26.797Z,97030.16
2022-09-28T08:36:14.462Z,97036.47
2022-09-28T08:39:01.070Z,97032.91
2022-09-28T08:41:42.403Z,97026.22
2022-09-28T08:48:00.287Z,97036.06
2022-09-28T08:50:46.908Z,97038.00
2022-09-28T08:53:40.856Z,97028.22
2022-09-28T08:56:32.238Z,97033.69
2022-09-28T08:59:03.576Z,97041.16
2022-09-28T09:01:38.374Z,97038.41
2022-09-28T09:04:09.570Z,97033.31
2022-09-28T09:07:13.152Z,97045.88
2022-09-28T09:10:01.423Z,97052.16
2022-09-28T09:12:36.722Z,97049.78
2022-09-28T09:15:41.666Z,97050.59
2022-09-28T09:18:34.922Z,97055.28
2022-09-28T09:21:38.476Z,97050.59
2022-09-28T09:24:25.563Z,97048.59
2022-09-28T09:27:08.239Z,97045.88
2022-09-28T09:30:03.874Z,97050.97
2022-09-28T09:32:47.837Z,97054.09
2022-09-28T09:35:31.568Z,97058.03
2022-09-28T09:38:33.889Z,97062.75
2022-09-28T09:41:44.465Z,97069.81
2022-09-28T09:44:52.305Z,97072.56
2022-09-28T09:47:42.895Z,97079.22
2022-09-28T09:50:32.551Z,97082.78
2022-09-28T09:53:06.777Z,97077.78
2022-09-28T09:55:43.958Z,97067.31
2022-09-28T09:58:31.832Z,97058.78
2022-09-28T10:01:33.501Z,97078.78
2022-09-28T10:04:25.669Z,97072.97
2022-09-28T10:06:59.945Z,97073.31
2022-09-28T10:09:33.138Z,97069.38
2022-09-28T10:12:21.696Z,97076.81
2022-09-28T10:14:49.920Z,97087.47
2022-09-28T10:17:26.700Z,97074.84
2022-09-28T10:20:13.568Z,97066.19
2022-09-28T10:22:57.693Z,97068.16
2022-09-28T10:25:26.281Z,97069.78
2022-09-28T10:27:55.322Z,97062.03
2022-09-28T10:30:26.114Z,97058.03
2022-09-28T10:32:59.402Z,97065.16
2022-09-28T10:35:47.375Z,97057.84
2022-09-28T10:38:17.929Z,97059.44
2022-09-28T10:40:54.207Z,97057.31
2022-09-28T10:43:35.699Z,97058.03
2022-09-28T10:46:10.723Z,97058.84
2022-09-28T10:48:50.932Z,97062.16
2022-09-28T10:51:20.428Z,97056.03
2022-09-28T10:54:01.913Z,97064.81
2022-09-28T10:56:49.785Z,97057.22
2022-09-28T10:59:38.133Z,97059.16
2022-09-28T11:02:26.149Z,97052.69
2022-09-28T11:05:01.067Z,97053.94
2022-09-28T11:07:35.198Z,97055.75
2022-09-28T11:10:04.158Z,97055.75
2022-09-28T11:12:39.557Z,97051.25
2022-09-28T11:15:08.873Z,97043.41
2022-09-28T11:17:40.358Z,97046.47
2022-09-28T11:20:32.935Z,97054.38
2022-09-28T11:23:20.404Z,97043.88
2022-09-28T11:25:59.455Z,97040.38
2022-09-28T11:28:32.613Z,97035.38
2022-09-28T11:31:07.849Z,97049.41
2022-09-28T11:34:14.031Z,97044.81
2022-09-28T11:37:11.119Z,97069.69
2022-09-28T11:39:46.976Z,97049.72
2022-09-28T11:42:29.937Z,97070.50
2022-09-28T11:45:11.496Z,97041.66
2022-09-28T11:47:49.125Z,97047.91
2022-09-28T11:50:28.484Z,97048.78
2022-09-28T11:53:09.783Z,97041.28
2022-09-28T11:55:43.310Z,97033.28
2022-09-28T11:58:16.373Z,97038.38
2022-09-28T12:00:51.834Z,97035.47
2022-09-28T12:03:26.236Z,97038.69
2022-09-28T12:06:01.079Z,97023.75
2022-09-28T12:08:33.538Z,97034.50
2022-09-28T12:11:13.638Z,97035.25
2022-09-28T12:14:06.036Z,97019.25
2022-09-28T12:17:04.267Z,97021.75
2022-09-28T12:19:33.141Z,97026.31
2022-09-28T12:22:04.037Z,97022.28
2022-09-28T12:24:38.573Z,97030.44
2022-09-28T12:27:13.783Z,97016.97
2022-09-28T12:29:47.261Z,97022.91
2022-09-28T12:32:35.549Z,97028.22
2022-09-28T12:35:04.383Z,97039.53
2022-09-28T12:37:43.128Z,97020.72
2022-09-28T12:40:34.876Z,97014.03
2022-09-28T12:43:33.343Z,97017.44
2022-09-28T12:46:20.585Z,97021.19
2022-09-28T12:50:13.827Z,97012.63
2022-09-28T12:52:00.235Z,97025.84
2022-09-28T12:54:58.017Z,97034.06
2022-09-28T12:57:44.605Z,97026.56
2022-09-28T13:00:16.014Z,97022.47
2022-09-28T13:03:09.306Z,97038.03
2022-09-28T13:06:05.398Z,97028.25
2022-09-28T13:08:44.300Z,97028.41
2022-09-28T13:11:24.127Z,97032.59
2022-09-28T13:14:02.984Z,97019.16
2022-09-28T13:16:41.542Z,97021.94
2022-09-28T13:19:17.502Z,97019.47
2022-09-28T13:21:53.706Z,97014.91
2022-09-28T13:24:34.054Z,97010.38
2022-09-28T13:27:10.178Z,97010.47
2022-09-28T13:29:40.921Z,97003.53
2022-09-28T13:32:09.716Z,97002.63
2022-09-28T13:34:39.405Z,97012.81
2022-09-28T13:37:21.466Z,97006.13
2022-09-28T13:39:52.623Z,97006.34
2022-09-28T13:42:35.014Z,97010.66
2022-09-28T13:45:20.492Z,97017.22
2022-09-28T13:48:13.565Z,97010.06
2022-09-28T13:51:06.288Z,97012.09
2022-09-28T13:53:48.786Z,97016.50
2022-09-28T13:56:28.248Z,97010.88
2022-09-28T13:59:01.462Z,97028.41
2022-09-28T14:01:37.980Z,97016.53
2022-09-28T14:04:16.458Z,97021.78
2022-09-28T14:06:48.768Z,97031.88
2022-09-28T14:10:11.617Z,97029.38
2022-09-28T14:12:48.869Z,97024.59
2022-09-28T14:15:46.833Z,97040.69
2022-09-28T14:18:34.893Z,97044.72
2022-09-28T14:21:26.032Z,97044.28
2022-09-28T14:24:05.954Z,97041.81
2022-09-28T14:27:10.197Z,97038.22
2022-09-28T14:29:39.988Z,97038.53
2022-09-28T14:32:23.582Z,97028.66
2022-09-28T14:35:00.676Z,97045.50
2022-09-28T14:37:49.040Z,97047.63
2022-09-28T14:40:40.052Z,97045.00
2022-09-28T14:43:28.536Z,97048.72
2022-09-28T14:46:29.165Z,97070.09
2022-09-28T14:49:01.562Z,97051.44
2022-09-28T14:51:58.195Z,97058.44
2022-09-28T14:54:27.770Z,97064.44
2022-09-28T14:57:09.847Z,97056.28
2022-09-28T14:59:48.165Z,97062.59
2022-09-28T15:02:28.826Z,97059.00
2022-09-28T15:05:00.021Z,97062.41
2022-09-28T15:07:34.241Z,97058.44
2022-09-28T15:10:02.625Z,97056.34
2022-09-28T15:12:31.647Z,97061.63
2022-09-28T15:15:02.103Z,97055.66
2022-09-28T15:17:38.562Z,97050.28
2022-09-28T15:20:24.344Z,97050.50
2022-09-28T15:22:57.466Z,97054.88
2022-09-28T15:25:27.788Z,97055.34
2022-09-28T15:27:57.467Z,97046.06
2022-09-28T15:30:28.407Z,97049.97
2022-09-28T15:33:17.737Z,97055.66
2022-09-28T15:35:47.785Z,97050.94
2022-09-28T15:38:18.376Z,97056.56
2022-09-28T15:40:47.584Z,97064.91
2022-09-28T15:43:33.000Z,97064.25
2022-09-28T15:46:18.659Z,97062.63
2022-09-28T15:48:52.125Z,97077.78
2022-09-28T15:51:22.002Z,97073.44
2022-09-28T15:53:58.282Z,97073.50
2022-09-28T15:56:26.811Z,97078.34
2022-09-28T15:59:10.657Z,97083.19
2022-09-28T16:01:40.115Z,97076.84
2022-09-28T16:04:47.931Z,97084.84
2022-09-28T16:07:23.128Z,97083.28
2022-09-28T16:10:35.036Z,97090.03
2022-09-28T16:13:17.070Z,97087.88
2022-09-28T16:15:45.222Z,97084.31
2022-09-28T16:18:20.413Z,97090.22
2022-09-28T16:20:50.055Z,97096.75
2022-09-28T16:23:22.818Z,97093.44
2022-09-28T16:25:54.530Z,97084.47
2022-09-28T16:28:30.423Z,97100.63
2022-09-28T16:31:03.656Z,97090.50
2022-09-28T16:33:46.572Z,97089.78
2022-09-28T16:36:16.896Z,97103.13
2022-09-28T16:38:45.057Z,97098.81
2022-09-28T16:41:14.927Z,97102.59
2022-09-28T16:43:42.625Z,97098.03
2022-09-28T16:46:13.187Z,97103.56
2022-09-28T16:48:48.730Z,97102.22
2022-09-28T16:51:16.608Z,97102.84
2022-09-28T16:54:02.303Z,97099.84
2022-09-28T16:56:32.200Z,97109.63
2022-09-28T16:58:59.939Z,97105.09
2022-09-28T17:01:28.403Z,97101.50
2022-09-28T17:03:57.474Z,97111.81
2022-09-28T17:06:25.869Z,97110.53
2022-09-28T17:08:54.421Z,97105.03
2022-09-28T17:11:24.701Z,97107.00
2022-09-28T17:13:58.790Z,97109.97
2022-09-28T17:16:49.757Z,97106.38
2022-09-28T17:19:21.180Z,97109.19
2022-09-28T17:21:49.839Z,97115.50
2022-09-28T17:24:18.642Z,97123.03
2022-09-28T17:26:48.976Z,97124.22
2022-09-28T17:29:18.493Z,97125.72
2022-09-28T17:31:47.643Z,97133.69
2022-09-28T17:34:16.830Z,97126.16
2022-09-28T17:36:45.739Z,97142.31
2022-09-28T17:39:15.337Z,97135.28
2022-09-28T17:41:43.094Z,97136.06
2022-09-28T17:44:10.984Z,97140.38
2022-09-28T17:46:45.800Z,97136.84
2022-09-28T17:49:14.048Z,97140.78
2022-09-28T17:51:41.937Z,97148.25
2022-09-28T17:54:09.737Z,97151.44
2022-09-28T17:56:37.748Z,97142.00
2022-09-28T17:59:08.102Z,97148.28
2022-09-28T18:01:40.664Z,97145.34
2022-09-28T18:04:22.960Z,97155.41
2022-09-28T18:06:59.369Z,97154.59
2022-09-28T18:09:27.123Z,97161.28
2022-09-28T18:12:00.815Z,97156.59
2022-09-28T18:14:29.002Z,97162.09
2022-09-28T18:16:58.096Z,97162.09
2022-09-28T18:19:31.740Z,97167.59
2022-09-28T18:22:01.174Z,97172.31
2022-09-28T18:24:28.853Z,97171.91
2022-09-28T18:26:56.534Z,97177.41
2022-09-28T18:29:24.378Z,97189.97
2022-09-28T18:31:52.112Z,97189.97
2022-09-28T18:34:23.331Z,97193.50
2022-09-28T18:36:51.027Z,97201.34
2022-09-28T18:39:18.762Z,97204.50
2022-09-28T18:41:46.544Z,97196.66
2022-09-28T18:44:14.302Z,97202.13
2022-09-28T18:46:43.602Z,97206.84
2022-09-28T18:49:11.585Z,97218.56
2022-09-28T18:51:40.784Z,97220.13
2022-09-28T18:54:08.546Z,97217.00
2022-09-28T18:56:37.958Z,97224.81
2022-09-28T18:59:09.971Z,97220.94
2022-09-28T19:01:41.485Z,97230.25
2022-09-28T19:04:10.706Z,97228.28
2022-09-28T19:06:41.513Z,97226.81
2022-09-28T19:09:09.889Z,97237.34
2022-09-28T19:11:37.633Z,97244.38
2022-09-28T19:14:05.403Z,97239.66
2022-09-28T19:16:34.552Z,97234.16
2022-09-28T19:19:03.251Z,97243.22
2022-09-28T19:21:31.239Z,97234.59
2022-09-28T19:24:03.328Z,97238.19
2022-09-28T19:26:34.091Z,97240.66
2022-09-28T19:29:05.676Z,97246.50
2022-09-28T19:31:33.800Z,97239.00
2022-09-28T19:34:01.602Z,97235.53
2022-09-28T19:36:29.496Z,97240.53
2022-09-28T19:39:02.128Z,97250.34
2022-09-28T19:41:44.400Z,97252.66
2022-09-28T19:44:15.700Z,97251.81
2022-09-28T19:46:43.821Z,97253.91
2022-09-28T19:49:13.513Z,97263.66
2022-09-28T19:52:01.560Z,97254.97
2022-09-28T19:54:36.295Z,97255.47
2022-09-28T19:57:08.652Z,97257.19
2022-09-28T19:59:36.893Z,97256.38
2022-09-28T20:02:04.908Z,97261.44
2022-09-28T20:04:32.606Z,97258.72
2022-09-28T20:07:00.303Z,97259.94
2022-09-28T20:09:28.069Z,97264.22
2022-09-28T20:11:55.946Z,97273.69
2022-09-28T20:14:25.971Z,97268.19
2022-09-28T20:16:58.390Z,97271.69
2022-09-28T20:19:26.290Z,97275.22
2022-09-28T20:21:54.781Z,97274.84
2022-09-28T20:24:22.502Z,97280.31
2022-09-28T20:26:50.625Z,97278.72
2022-09-28T20:29:18.375Z,97269.72
2022-09-28T20:31:47.506Z,97274.84
2022-09-28T20:34:15.406Z,97282.66
2022-09-28T20:36:45.985Z,97271.28
2022-09-28T20:39:14.466Z,97272.91
2022-09-28T20:41:42.186Z,97287.88
2022-09-28T20:44:10.000Z,97282.88
2022-09-28T20:46:38.485Z,97288.34
2022-09-28T20:49:08.042Z,97290.03
2022-09-28T20:51:35.739Z,97295.91
2022-09-28T20:54:03.456Z,97306.25
2022-09-28T20:56:37.418Z,97293.09
2022-09-28T20:59:05.293Z,97302.84
2022-09-28T21:01:33.087Z,97294.94
2022-09-28T21:04:02.502Z,97290.81
2022-09-28T21:06:33.128Z,97289.56
2022-09-28T21:09:01.101Z,97281.47
2022-09-28T21:11:30.398Z,97281.53
2022-09-28T21:13:59.449Z,97282.13
2022-09-28T21:16:28.597Z,97288.16
2022-09-28T21:18:56.455Z,97285.31
2022-09-28T21:21:25.262Z,97289.13
2022-09-28T21:23:55.084Z,97276.66
2022-09-28T21:26:27.916Z,97282.69
2022-09-28T21:28:57.447Z,97280.91
2022-09-28T21:31:29.123Z,97287.59
2022-09-28T21:33:58.025Z,97277.47
2022-09-28T21:36:26.170Z,97279.16
2022-09-28T21:38:55.974Z,97273.63
2022-09-28T21:41:23.728Z,97266.59
2022-09-28T21:43:51.471Z,97272.06
2022-09-28T21:46:19.525Z,97269.72
2022-09-28T21:48:47.337Z,97268.53
2022-09-28T21:51:15.721Z,97267.41
2022-09-28T21:53:43.624Z,97272.16
2022-09-28T21:56:14.036Z,97267.75
2022-09-28T21:58:41.948Z,97269.28
2022-09-28T22:01:13.369Z,97264.63
2022-09-28T22:03:42.593Z,97263.06
2022-09-28T22:06:11.135Z,97268.16
2022-09-28T22:08:39.875Z,97259.47
2022-09-28T22:11:09.393Z,97254.75
2022-09-28T22:13:41.682Z,97257.50
2022-09-28T22:16:10.473Z,97261.03
2022-09-28T22:18:38.728Z,97260.25
2022-09-28T22:21:08.940Z,97256.72
2022-09-28T22:23:37.567Z,97255.53
2022-09-28T22:26:09.680Z,97254.75
2022-09-28T22:28:39.601Z,97263.78
2022-09-28T22:31:07.493Z,97258.28
2022-09-28T22:33:35.288Z,97264.19
2022-09-28T22:36:03.192Z,97264.19
2022-09-28T22:38:33.083Z,97262.63
2022-09-28T22:41:01.325Z,97273.66
2022-09-28T22:43:29.109Z,97265.78
2022-09-28T22:46:03.960Z,97259.88
2022-09-28T22:48:31.809Z,97257.53
2022-09-28T22:51:00.331Z,97257.16
2022-09-28T22:53:28.819Z,97259.50
2022-09-28T22:55:57.098Z,97260.31
2022-09-28T22:58:25.160Z,97268.16
2022-09-28T23:00:53.160Z,97258.34
2022-09-28T23:03:22.250Z,97262.25
2022-09-28T23:05:53.908Z,97264.63
2022-09-28T23:08:22.118Z,97264.63
2022-09-28T23:10:49.815Z,97256.00
2022-09-28T23:13:17.542Z,97267.31
2022-09-28T23:15:45.320Z,97271.56
2022-09-28T23:18:13.060Z,97269.13
2022-09-28T23:20:42.113Z,97266.81
2022-09-28T23:23:09.755Z,97267.63
2022-09-28T23:25:37.440Z,97268.06
2022-09-28T23:28:05.165Z,97269.25
2022-09-28T23:30:32.803Z,97277.13
2022-09-28T23:33:00.459Z,97278.84
2022-09-28T23:35:28.167Z,97274.25
2022-09-28T23:37:57.208Z,97277.16
2022-09-28T23:40:24.933Z,97273.16
2022-09-28T23:42:52.861Z,97285.13
2022-09-28T23:45:20.795Z,97279.13
2022-09-28T23:47:48.996Z,97288.94
2022-09-28T23:50:16.831Z,97279.00
2022-09-28T23:52:44.606Z,97283.00
2022-09-28T23:55:13.629Z,97281.53
2022-09-28T23:57:41.343Z,97278.22
